INFORMACIÓN METAR y TAF
METAR FOR LEVD
ADDS - METARS form results

(1918 UTC 28 January 2020)
Data provider http://aviationweather.gov/metar/data/
 
METAR text: LEVD 281900Z 24013KT 9000 OVC006 10/09 Q1021 RERA
Conditions at: LEVD (VALLADOLID(MIL/C, ES) observed 1900 UTC 28 January 2020
Temperature: 10.0°C (50°F)
Dewpoint: 9.0°C (48°F) [RH = 93%]
Pressure (altimeter): 30.15 inches Hg (1021.0 mb)
Winds: from the WSW (240 degrees) at 15 MPH (13 knots; 6.7 m/s)
Visibility: 6 miles ( 9 km)
Ceiling: 600 feet AGL
Clouds: overcast cloud deck at 600 feet AGL
Weather: no significant weather observed at this time

METAR text: LEVD 281830Z 24014KT 6000 RA OVC006 10/09 Q1021
Conditions at: LEVD (VALLADOLID(MIL/C, ES) observed 1830 UTC 28 January 2020
Temperature: 10.0°C (50°F)
Dewpoint: 9.0°C (48°F) [RH = 93%]
Pressure (altimeter): 30.15 inches Hg (1021.0 mb)
Winds: from the WSW (240 degrees) at 16 MPH (14 knots; 7.2 m/s)
Visibility: 4 miles ( 6 km)
Ceiling: 600 feet AGL
Clouds: overcast cloud deck at 600 feet AGL
Weather: RA  (moderate rain)

Forecast for: LEVD (VALLADOLID(MIL/C, ES)
Text: TAF LEVD 281700Z 2818/2918 24012KT 9999 BKN006 BKN014 TX11/2915Z TN07/2906Z
Forecast period: 1800 UTC 28 January 2020 to 1800 UTC 29 January 2020
Forecast type: FROM: standard forecast or significant change
Winds: from the WSW (240 degrees) at 14 MPH (12 knots; 6.2 m/s)
Visibility: 6 or more miles 10+ km)
Ceiling: 600 feet AGL
Clouds: broken clouds at 600 feet AGL
broken clouds at 1400 feet AGL
Weather: no significant weather forecast for this period
Text: PROB40
Forecast period: 1800 UTC 28 January 2020 to 1800 UTC 29 January 2020
Forecast type: TEMPORARY: The following changes expected for less than half the time period
Visibility: 0.93 miles (1.50 km)
Ceiling: 300 feet AGL
Clouds: broken clouds at 300 feet AGL
Weather: RA BR  (moderate rain, mist)

 MAPA DE AEROPUERTO

 INFORMACIÓN DE PISTA
Pista 05 Longitud 9843 ft Ancho 197 ft
Elevación 2768 ft Umbral desplazado 0 ft Rumbo de pista 45
Pista 23 Longitud 9843 ft Ancho 197 ft
Elevación 2775 ft Umbral desplazado 0 ft Rumbo de pista 225
Pista 15 Longitud 2976 ft Ancho 197 ft
Elevación 2770 ft Umbral desplazado 0 ft Rumbo de pista 144
Pista 33 Longitud 2976 ft Ancho 197 ft
Elevación 2771 ft Umbral desplazado 0 ft Rumbo de pista 324

 FRECUANCIAS DEL AEROPUERTO
Tipo TWR Nombre TWR Frecuencia 122.2 MHZ

 RADIO AYUDAS DEL AEROPUERTO
Tipo TACAN Nombre Valladolid Frecuencia 108200 KHZ
Tipo NDB Nombre Valladolid Frecuencia 342 KHZ



Powered by Virtual Airlines Manager [v2.6.2]